Airfield :
LOGIN :

Register | Disclaimer

   EN    FR    IT 

 










Legend :    VFR   Marginal VFR   IFR   Intensive IFR   Very Intensive IFR
Visi :
Ceiling :
>= 8 km
>= 3000ft
5 to 8 km
1000 to 3000 ft
1500m to 5 km
500 to 1000 ft
800 to 1500m
200 to 500 ft
< 800m
< 200 ft
Symbols :   Thunderstorms  Fog  Heavy snow  Heavy precipitations  Wind > 20 kt
SIGMETs :     Misc.  Thunderstorms  Icing  Turbulence  Mountain Waves  Volcanic Ashes







- Airport Elevation : 3 ft
- IATA code : DHR


EHKD - Den Helder De Kooy

CURRENT METAR :
  • 211725Z AUTO 21006KT 9999 OVC010 09/07 Q1033 GRN 23005KT 9999 BKN013 TEMPO SCT006 BKN009 OVC012

EXPIRED METARs :
  • 211655Z AUTO 23005KT 9999 OVC011 09/07 Q1033 GRN 23005KT 9999 BKN013 TEMPO SCT006 BKN009 OVC012
  • 211625Z AUTO 24006KT 9999 OVC011 09/07 Q1033 GRN 23010KT 9999 BKN015 TEMPO 4500 BR SCT006 BKN009 OVC012
  • 211555Z AUTO 24008KT 9999 OVC012 09/08 Q1033 GRN 23010KT 9999 BKN015 TEMPO 4500 BR SCT006 BKN009 OVC012
  • 211525Z AUTO 24010KT 9999 FEW007 OVC014 09/08 Q1033 GRN 23010KT 9999 BKN015 TEMPO 4500 BR SCT006 BKN009 OVC012
  • 211455Z AUTO 24010KT 200V270 9999 FEW007 SCT008 OVC015 09/08 Q1033 GRN 23010KT 9999 BKN015 TEMPO 4500 BR SCT007 BKN009 OVC012

TAF TAF EHKD
Valid from the 21 at 14:00 until the 22 at 02:00 UTC


211345Z 2114/2202 22012KT 9999 BKN013
TEMPO 2116/2202 FEW004 SCT007 BKN010
BECMG 2117/2120 18005KT
No reported NOTAMs for that airfield.



MET'MAP, your aeronautical weather chart ! - Copyright ORBIFLY December 2007 - Disclaimer

ORBIFLY MET'MAP TEAM :

Programming & Development : Alexandra Zaïnal
Concept & Development : Baudouin d'Aumeries
Co-Development & Prog : Marc-Olivier Méhu
Technical & hardware support : Manuel Goepfert

Contact : metmap@orbifly.com




SOURCES & CREDITS :

   NOAA